sensor_id;sensor_type;location;lat;lon;timestamp;pressure;altitude;pressure_sealevel;temperature;humidity
28510;BME280;15723;55.684;37.928;2022-10-22T00:02:16;100528.59;;;7.07;74.97
28510;BME280;15723;55.684;37.928;2022-10-22T00:04:45;100530.59;;;7.24;74.30
28510;BME280;15723;55.684;37.928;2022-10-22T00:07:11;100522.53;;;7.01;75.21
28510;BME280;15723;55.684;37.928;2022-10-22T00:09:37;100529.09;;;7.17;74.63
28510;BME280;15723;55.684;37.928;2022-10-22T00:12:03;100527.31;;;6.94;75.38
28510;BME280;15723;55.684;37.928;2022-10-22T00:14:30;100530.81;;;6.96;75.22
28510;BME280;15723;55.684;37.928;2022-10-22T00:16:56;100529.50;;;6.84;75.55
28510;BME280;15723;55.684;37.928;2022-10-22T00:19:26;100526.00;;;7.04;75.25
28510;BME280;15723;55.684;37.928;2022-10-22T00:21:52;100526.47;;;7.15;74.86
28510;BME280;15723;55.684;37.928;2022-10-22T00:24:18;100536.25;;;7.18;74.65
28510;BME280;15723;55.684;37.928;2022-10-22T00:26:44;100528.28;;;7.37;74.10
28510;BME280;15723;55.684;37.928;2022-10-22T00:29:10;100523.44;;;7.01;75.11
28510;BME280;15723;55.684;37.928;2022-10-22T00:31:36;100525.25;;;7.01;74.99
28510;BME280;15723;55.684;37.928;2022-10-22T00:34:02;100525.41;;;7.19;74.81
28510;BME280;15723;55.684;37.928;2022-10-22T00:36:28;100519.72;;;7.04;74.97
28510;BME280;15723;55.684;37.928;2022-10-22T00:38:54;100516.09;;;7.27;74.32
28510;BME280;15723;55.684;37.928;2022-10-22T00:41:20;100519.28;;;6.93;75.04
28510;BME280;15723;55.684;37.928;2022-10-22T00:44:00;100517.91;;;7.26;74.20
28510;BME280;15723;55.684;37.928;2022-10-22T00:46:26;100525.19;;;7.02;75.42
28510;BME280;15723;55.684;37.928;2022-10-22T00:48:53;100512.75;;;6.98;75.50
28510;BME280;15723;55.684;37.928;2022-10-22T00:51:20;100514.44;;;7.01;74.96
28510;BME280;15723;55.684;37.928;2022-10-22T00:53:47;100519.00;;;7.22;74.00
28510;BME280;15723;55.684;37.928;2022-10-22T00:56:15;100511.28;;;7.13;74.23
28510;BME280;15723;55.684;37.928;2022-10-22T00:58:43;100508.94;;;7.26;73.63
28510;BME280;15723;55.684;37.928;2022-10-22T01:01:12;100510.50;;;7.31;73.52
28510;BME280;15723;55.684;37.928;2022-10-22T01:03:39;100504.94;;;7.14;73.79
28510;BME280;15723;55.684;37.928;2022-10-22T01:06:05;100503.28;;;7.32;73.62
28510;BME280;15723;55.684;37.928;2022-10-22T01:08:35;100502.06;;;7.39;73.42
28510;BME280;15723;55.684;37.928;2022-10-22T01:11:14;100498.72;;;7.12;73.97
28510;BME280;15723;55.684;37.928;2022-10-22T01:16:13;100510.94;;;7.20;74.45
28510;BME280;15723;55.684;37.928;2022-10-22T01:31:04;100510.75;;;7.25;74.83
28510;BME280;15723;55.684;37.928;2022-10-22T01:33:30;100514.66;;;7.18;75.41
28510;BME280;15723;55.684;37.928;2022-10-22T01:35:57;100517.19;;;7.44;74.74
28510;BME280;15723;55.684;37.928;2022-10-22T01:38:24;100515.91;;;7.31;74.79
28510;BME280;15723;55.684;37.928;2022-10-22T01:40:51;100518.47;;;7.34;74.58
28510;BME280;15723;55.684;37.928;2022-10-22T01:43:17;100522.50;;;7.24;74.93
28510;BME280;15723;55.684;37.928;2022-10-22T01:45:53;100526.38;;;7.39;74.53
28510;BME280;15723;55.684;37.928;2022-10-22T01:58:33;100520.72;;;7.67;74.86
28510;BME280;15723;55.684;37.928;2022-10-22T02:01:07;100524.44;;;7.42;75.36
28510;BME280;15723;55.684;37.928;2022-10-22T02:03:47;100523.69;;;7.39;75.54
28510;BME280;15723;55.684;37.928;2022-10-22T02:06:18;100528.34;;;7.57;74.81
28510;BME280;15723;55.684;37.928;2022-10-22T02:08:45;100528.34;;;7.35;75.51
28510;BME280;15723;55.684;37.928;2022-10-22T02:11:13;100522.81;;;7.38;75.38
28510;BME280;15723;55.684;37.928;2022-10-22T02:13:41;100521.53;;;7.69;74.68
28510;BME280;15723;55.684;37.928;2022-10-22T02:16:09;100531.22;;;7.52;75.11
28510;BME280;15723;55.684;37.928;2022-10-22T02:18:39;100518.59;;;7.31;76.20
28510;BME280;15723;55.684;37.928;2022-10-22T02:21:09;100529.72;;;7.24;76.42
28510;BME280;15723;55.684;37.928;2022-10-22T02:23:35;100530.63;;;7.46;75.78
28510;BME280;15723;55.684;37.928;2022-10-22T02:26:13;100533.88;;;7.54;75.49
28510;BME280;15723;55.684;37.928;2022-10-22T02:31:27;100538.25;;;7.35;75.86
28510;BME280;15723;55.684;37.928;2022-10-22T02:33:54;100538.66;;;7.47;75.84
28510;BME280;15723;55.684;37.928;2022-10-22T02:36:22;100534.56;;;7.37;75.89
28510;BME280;15723;55.684;37.928;2022-10-22T02:38:48;100530.09;;;7.36;76.05
28510;BME280;15723;55.684;37.928;2022-10-22T02:41:16;100536.63;;;7.52;75.49
28510;BME280;15723;55.684;37.928;2022-10-22T02:43:43;100541.09;;;7.53;75.66
28510;BME280;15723;55.684;37.928;2022-10-22T02:46:10;100545.72;;;7.72;74.88
28510;BME280;15723;55.684;37.928;2022-10-22T02:48:36;100543.94;;;7.50;75.51
28510;BME280;15723;55.684;37.928;2022-10-22T02:51:02;100537.19;;;7.39;75.86
28510;BME280;15723;55.684;37.928;2022-10-22T02:53:28;100545.28;;;7.61;75.44
28510;BME280;15723;55.684;37.928;2022-10-22T02:55:54;100551.09;;;7.51;75.62
28510;BME280;15723;55.684;37.928;2022-10-22T02:58:20;100551.97;;;7.30;76.24
28510;BME280;15723;55.684;37.928;2022-10-22T03:00:47;100544.75;;;7.52;75.44
28510;BME280;15723;55.684;37.928;2022-10-22T03:03:13;100551.25;;;7.69;75.11
28510;BME280;15723;55.684;37.928;2022-10-22T03:05:39;100554.47;;;7.57;75.82
28510;BME280;15723;55.684;37.928;2022-10-22T03:08:05;100556.34;;;7.55;75.96
28510;BME280;15723;55.684;37.928;2022-10-22T03:10:32;100543.59;;;7.58;75.82
28510;BME280;15723;55.684;37.928;2022-10-22T03:12:58;100549.94;;;7.57;76.14
28510;BME280;15723;55.684;37.928;2022-10-22T03:15:24;100545.06;;;7.45;76.28
28510;BME280;15723;55.684;37.928;2022-10-22T03:17:50;100540.38;;;7.05;77.43
28510;BME280;15723;55.684;37.928;2022-10-22T03:20:16;100544.59;;;7.56;75.77
28510;BME280;15723;55.684;37.928;2022-10-22T03:22:42;100539.94;;;7.37;76.64
28510;BME280;15723;55.684;37.928;2022-10-22T03:25:12;100540.53;;;7.45;76.47
28510;BME280;15723;55.684;37.928;2022-10-22T03:27:41;100540.75;;;7.39;76.72
28510;BME280;15723;55.684;37.928;2022-10-22T03:30:07;100537.84;;;7.24;77.31
28510;BME280;15723;55.684;37.928;2022-10-22T03:32:34;100542.97;;;7.30;76.94
28510;BME280;15723;55.684;37.928;2022-10-22T03:35:00;100532.50;;;7.22;76.98
28510;BME280;15723;55.684;37.928;2022-10-22T03:37:26;100544.09;;;7.24;76.94
28510;BME280;15723;55.684;37.928;2022-10-22T03:39:52;100542.72;;;7.36;76.76
28510;BME280;15723;55.684;37.928;2022-10-22T03:42:19;100540.75;;;7.39;76.51
28510;BME280;15723;55.684;37.928;2022-10-22T03:44:46;100544.03;;;7.26;75.90
28510;BME280;15723;55.684;37.928;2022-10-22T03:47:12;100530.94;;;7.16;76.48
28510;BME280;15723;55.684;37.928;2022-10-22T03:49:38;100534.69;;;7.34;76.52
28510;BME280;15723;55.684;37.928;2022-10-22T03:52:07;100542.59;;;7.39;76.06
28510;BME280;15723;55.684;37.928;2022-10-22T03:54:34;100546.16;;;7.39;76.30
28510;BME280;15723;55.684;37.928;2022-10-22T03:57:00;100545.75;;;7.28;76.57
28510;BME280;15723;55.684;37.928;2022-10-22T03:59:26;100544.44;;;7.16;76.80
28510;BME280;15723;55.684;37.928;2022-10-22T04:01:52;100545.34;;;7.37;75.95
28510;BME280;15723;55.684;37.928;2022-10-22T04:04:18;100541.78;;;7.37;75.98
28510;BME280;15723;55.684;37.928;2022-10-22T04:06:45;100555.53;;;7.52;75.20
28510;BME280;15723;55.684;37.928;2022-10-22T04:09:11;100553.41;;;7.61;75.18
28510;BME280;15723;55.684;37.928;2022-10-22T04:11:37;100550.81;;;7.58;75.12
28510;BME280;15723;55.684;37.928;2022-10-22T04:14:03;100544.53;;;7.35;76.03
28510;BME280;15723;55.684;37.928;2022-10-22T04:16:29;100548.13;;;7.58;75.71
28510;BME280;15723;55.684;37.928;2022-10-22T04:18:57;100545.28;;;7.39;75.97
28510;BME280;15723;55.684;37.928;2022-10-22T04:21:23;100545.19;;;7.20;76.33
28510;BME280;15723;55.684;37.928;2022-10-22T04:23:50;100543.72;;;7.33;76.43
28510;BME280;15723;55.684;37.928;2022-10-22T04:26:17;100547.56;;;7.28;76.57
28510;BME280;15723;55.684;37.928;2022-10-22T04:28:44;100549.53;;;7.46;75.91
28510;BME280;15723;55.684;37.928;2022-10-22T04:31:12;100556.22;;;7.36;76.44
28510;BME280;15723;55.684;37.928;2022-10-22T04:33:39;100553.81;;;7.72;74.84
28510;BME280;15723;55.684;37.928;2022-10-22T04:36:08;100553.06;;;7.68;74.83
28510;BME280;15723;55.684;37.928;2022-10-22T04:38:37;100549.78;;;7.82;74.84
28510;BME280;15723;55.684;37.928;2022-10-22T04:41:10;100546.56;;;7.94;74.19
28510;BME280;15723;55.684;37.928;2022-10-22T04:43:37;100552.06;;;7.71;75.27
28510;BME280;15723;55.684;37.928;2022-10-22T04:46:03;100559.53;;;7.42;76.05
28510;BME280;15723;55.684;37.928;2022-10-22T04:48:29;100553.16;;;7.45;75.92
28510;BME280;15723;55.684;37.928;2022-10-22T04:50:58;100551.41;;;7.44;76.27
28510;BME280;15723;55.684;37.928;2022-10-22T04:53:25;100554.59;;;7.53;76.32
28510;BME280;15723;55.684;37.928;2022-10-22T04:55:52;100556.44;;;7.53;76.30
28510;BME280;15723;55.684;37.928;2022-10-22T04:58:19;100558.84;;;7.37;76.13
28510;BME280;15723;55.684;37.928;2022-10-22T05:00:45;100553.09;;;7.46;76.22
28510;BME280;15723;55.684;37.928;2022-10-22T05:03:11;100552.78;;;7.32;76.42
28510;BME280;15723;55.684;37.928;2022-10-22T05:05:37;100560.75;;;7.35;76.44
28510;BME280;15723;55.684;37.928;2022-10-22T05:08:03;100561.75;;;7.33;76.86
28510;BME280;15723;55.684;37.928;2022-10-22T05:10:29;100558.25;;;7.52;76.07
28510;BME280;15723;55.684;37.928;2022-10-22T05:12:56;100566.09;;;7.37;76.21
28510;BME280;15723;55.684;37.928;2022-10-22T05:15:22;100565.59;;;7.49;76.10
28510;BME280;15723;55.684;37.928;2022-10-22T05:17:48;100571.03;;;7.69;75.62
28510;BME280;15723;55.684;37.928;2022-10-22T05:20:14;100567.56;;;7.45;76.25
28510;BME280;15723;55.684;37.928;2022-10-22T05:22:40;100571.50;;;7.59;76.28
28510;BME280;15723;55.684;37.928;2022-10-22T05:25:06;100571.50;;;7.59;76.50
28510;BME280;15723;55.684;37.928;2022-10-22T05:27:33;100574.63;;;7.70;75.96
28510;BME280;15723;55.684;37.928;2022-10-22T05:29:58;100580.28;;;7.64;75.93
28510;BME280;15723;55.684;37.928;2022-10-22T05:32:24;100578.34;;;7.67;75.85
28510;BME280;15723;55.684;37.928;2022-10-22T05:34:50;100574.06;;;7.62;75.75
28510;BME280;15723;55.684;37.928;2022-10-22T05:37:17;100571.50;;;7.59;75.88
28510;BME280;15723;55.684;37.928;2022-10-22T05:39:43;100578.81;;;7.77;75.68
28510;BME280;15723;55.684;37.928;2022-10-22T05:42:09;100578.94;;;7.74;75.98
28510;BME280;15723;55.684;37.928;2022-10-22T05:44:35;100577.81;;;7.79;75.43
28510;BME280;15723;55.684;37.928;2022-10-22T05:47:01;100581.22;;;7.84;75.80
28510;BME280;15723;55.684;37.928;2022-10-22T05:49:27;100574.88;;;8.06;74.83
28510;BME280;15723;55.684;37.928;2022-10-22T05:51:53;100579.63;;;7.79;75.77
28510;BME280;15723;55.684;37.928;2022-10-22T05:54:20;100585.19;;;8.18;74.89
28510;BME280;15723;55.684;37.928;2022-10-22T05:56:47;100586.66;;;8.25;74.66
28510;BME280;15723;55.684;37.928;2022-10-22T05:59:13;100575.88;;;8.03;74.98
28510;BME280;15723;55.684;37.928;2022-10-22T06:01:39;100576.13;;;8.19;74.59
28510;BME280;15723;55.684;37.928;2022-10-22T06:04:06;100578.03;;;8.15;74.33
28510;BME280;15723;55.684;37.928;2022-10-22T06:06:40;100576.84;;;8.23;74.05
28510;BME280;15723;55.684;37.928;2022-10-22T06:11:46;100588.78;;;7.97;75.36
28510;BME280;15723;55.684;37.928;2022-10-22T06:14:12;100585.63;;;8.07;74.16
28510;BME280;15723;55.684;37.928;2022-10-22T06:16:39;100581.53;;;8.19;73.86
28510;BME280;15723;55.684;37.928;2022-10-22T06:19:05;100577.84;;;8.00;74.75
28510;BME280;15723;55.684;37.928;2022-10-22T06:21:31;100582.56;;;7.95;75.17
28510;BME280;15723;55.684;37.928;2022-10-22T06:23:58;100596.28;;;7.90;75.19
28510;BME280;15723;55.684;37.928;2022-10-22T06:26:24;100587.09;;;8.14;74.23
28510;BME280;15723;55.684;37.928;2022-10-22T06:28:51;100590.38;;;8.23;73.52
28510;BME280;15723;55.684;37.928;2022-10-22T06:31:17;100592.22;;;8.42;73.30
28510;BME280;15723;55.684;37.928;2022-10-22T06:33:43;100599.66;;;8.37;73.50
28510;BME280;15723;55.684;37.928;2022-10-22T06:36:12;100595.66;;;8.26;73.81
28510;BME280;15723;55.684;37.928;2022-10-22T06:38:39;100592.06;;;8.45;72.63
28510;BME280;15723;55.684;37.928;2022-10-22T06:41:06;100600.53;;;8.38;72.94
28510;BME280;15723;55.684;37.928;2022-10-22T06:43:32;100596.09;;;8.57;72.65
28510;BME280;15723;55.684;37.928;2022-10-22T06:45:59;100602.69;;;8.50;72.47
28510;BME280;15723;55.684;37.928;2022-10-22T06:48:26;100603.31;;;8.57;72.03
28510;BME280;15723;55.684;37.928;2022-10-22T06:50:52;100604.44;;;8.71;72.38
28510;BME280;15723;55.684;37.928;2022-10-22T06:53:18;100601.44;;;8.77;71.67
28510;BME280;15723;55.684;37.928;2022-10-22T06:55:45;100607.00;;;8.74;71.82
28510;BME280;15723;55.684;37.928;2022-10-22T06:58:11;100608.03;;;8.91;71.62
28510;BME280;15723;55.684;37.928;2022-10-22T07:00:37;100608.91;;;8.72;71.81
28510;BME280;15723;55.684;37.928;2022-10-22T07:03:03;100606.72;;;8.81;71.56
28510;BME280;15723;55.684;37.928;2022-10-22T07:05:29;100617.97;;;8.71;71.55
28510;BME280;15723;55.684;37.928;2022-10-22T07:07:55;100615.63;;;8.64;72.09
28510;BME280;15723;55.684;37.928;2022-10-22T07:10:21;100612.13;;;8.81;70.88
28510;BME280;15723;55.684;37.928;2022-10-22T07:12:47;100608.09;;;8.70;71.13
28510;BME280;15723;55.684;37.928;2022-10-22T07:15:13;100603.34;;;8.75;71.31
28510;BME280;15723;55.684;37.928;2022-10-22T07:17:39;100609.19;;;8.66;72.29
28510;BME280;15723;55.684;37.928;2022-10-22T07:20:05;100609.44;;;8.81;71.43
28510;BME280;15723;55.684;37.928;2022-10-22T07:22:31;100614.84;;;8.81;71.70
28510;BME280;15723;55.684;37.928;2022-10-22T07:24:57;100604.28;;;8.95;71.17
28510;BME280;15723;55.684;37.928;2022-10-22T07:27:23;100612.78;;;8.86;71.92
28510;BME280;15723;55.684;37.928;2022-10-22T07:29:49;100613.06;;;9.19;70.83
28510;BME280;15723;55.684;37.928;2022-10-22T07:32:15;100608.75;;;8.96;71.11
28510;BME280;15723;55.684;37.928;2022-10-22T07:34:41;100612.31;;;9.15;70.63
28510;BME280;15723;55.684;37.928;2022-10-22T07:37:07;100608.50;;;9.19;70.60
28510;BME280;15723;55.684;37.928;2022-10-22T07:39:33;100614.03;;;9.36;70.20
28510;BME280;15723;55.684;37.928;2022-10-22T07:41:59;100614.88;;;9.18;70.00
28510;BME280;15723;55.684;37.928;2022-10-22T07:44:25;100616.94;;;9.32;69.13
28510;BME280;15723;55.684;37.928;2022-10-22T07:46:51;100607.94;;;9.31;70.03
28510;BME280;15723;55.684;37.928;2022-10-22T07:49:17;100608.44;;;9.02;70.62
28510;BME280;15723;55.684;37.928;2022-10-22T07:51:43;100616.16;;;9.30;70.22
28510;BME280;15723;55.684;37.928;2022-10-22T07:54:09;100611.00;;;9.43;70.57
28510;BME280;15723;55.684;37.928;2022-10-22T07:56:35;100620.44;;;9.89;69.31
28510;BME280;15723;55.684;37.928;2022-10-22T07:59:01;100613.25;;;9.52;68.96
28510;BME280;15723;55.684;37.928;2022-10-22T08:01:27;100618.75;;;9.50;69.82
28510;BME280;15723;55.684;37.928;2022-10-22T08:03:53;100611.81;;;9.45;69.87
28510;BME280;15723;55.684;37.928;2022-10-22T08:06:19;100610.19;;;9.40;69.95
28510;BME280;15723;55.684;37.928;2022-10-22T08:08:45;100615.44;;;9.62;69.33
28510;BME280;15723;55.684;37.928;2022-10-22T08:11:11;100624.47;;;9.44;69.10
28510;BME280;15723;55.684;37.928;2022-10-22T08:13:37;100618.59;;;9.53;69.62
28510;BME280;15723;55.684;37.928;2022-10-22T08:16:04;100614.44;;;9.46;69.55
28510;BME280;15723;55.684;37.928;2022-10-22T08:18:30;100614.31;;;9.30;70.38
28510;BME280;15723;55.684;37.928;2022-10-22T08:20:56;100605.28;;;9.49;69.88
28510;BME280;15723;55.684;37.928;2022-10-22T08:23:23;100609.31;;;9.40;70.76
28510;BME280;15723;55.684;37.928;2022-10-22T08:25:49;100612.75;;;9.44;69.64
28510;BME280;15723;55.684;37.928;2022-10-22T08:28:15;100609.84;;;10.01;68.60
28510;BME280;15723;55.684;37.928;2022-10-22T08:30:41;100617.28;;;9.62;68.51
28510;BME280;15723;55.684;37.928;2022-10-22T08:33:09;100607.63;;;9.92;68.14
28510;BME280;15723;55.684;37.928;2022-10-22T08:35:35;100616.03;;;9.50;68.59
28510;BME280;15723;55.684;37.928;2022-10-22T08:38:01;100612.00;;;9.59;68.55
28510;BME280;15723;55.684;37.928;2022-10-22T08:40:29;100619.22;;;9.41;69.12
28510;BME280;15723;55.684;37.928;2022-10-22T08:50:49;100619.59;;;9.33;69.38
28510;BME280;15723;55.684;37.928;2022-10-22T08:53:19;100617.88;;;9.50;68.89
28510;BME280;15723;55.684;37.928;2022-10-22T08:55:46;100615.69;;;9.20;69.02
28510;BME280;15723;55.684;37.928;2022-10-22T08:58:17;100620.53;;;9.14;69.50
28510;BME280;15723;55.684;37.928;2022-10-22T09:01:11;100616.94;;;9.13;68.21
28510;BME280;15723;55.684;37.928;2022-10-22T09:08:35;100611.16;;;9.02;69.23
28510;BME280;15723;55.684;37.928;2022-10-22T09:13:46;100614.66;;;9.23;68.16
28510;BME280;15723;55.684;37.928;2022-10-22T09:16:14;100608.34;;;9.60;67.06
28510;BME280;15723;55.684;37.928;2022-10-22T09:18:45;100602.47;;;9.69;66.85
28510;BME280;15723;55.684;37.928;2022-10-22T09:21:18;100605.59;;;9.43;67.93
28510;BME280;15723;55.684;37.928;2022-10-22T09:23:58;100604.47;;;9.28;67.86
28510;BME280;15723;55.684;37.928;2022-10-22T09:26:29;100601.16;;;9.59;67.24
28510;BME280;15723;55.684;37.928;2022-10-22T09:28:58;100604.09;;;9.54;67.01
28510;BME280;15723;55.684;37.928;2022-10-22T09:31:25;100607.22;;;9.64;66.69
28510;BME280;15723;55.684;37.928;2022-10-22T09:33:52;100605.41;;;9.64;67.33
28510;BME280;15723;55.684;37.928;2022-10-22T09:36:21;100600.56;;;9.71;66.78
28510;BME280;15723;55.684;37.928;2022-10-22T09:38:48;100603.16;;;9.91;66.15
28510;BME280;15723;55.684;37.928;2022-10-22T09:41:15;100597.22;;;9.83;66.42
28510;BME280;15723;55.684;37.928;2022-10-22T09:43:42;100600.72;;;9.68;66.08
28510;BME280;15723;55.684;37.928;2022-10-22T09:46:20;100601.53;;;9.87;65.82
28510;BME280;15723;55.684;37.928;2022-10-22T09:49:32;100601.31;;;9.56;65.83
28510;BME280;15723;55.684;37.928;2022-10-22T09:54:13;100604.47;;;9.47;65.75
28510;BME280;15723;55.684;37.928;2022-10-22T09:56:40;100607.56;;;9.39;66.30
28510;BME280;15723;55.684;37.928;2022-10-22T09:59:16;100601.03;;;9.43;65.79
28510;BME280;15723;55.684;37.928;2022-10-22T10:01:45;100604.69;;;9.23;66.64
28510;BME280;15723;55.684;37.928;2022-10-22T10:04:14;100600.00;;;9.27;66.28
28510;BME280;15723;55.684;37.928;2022-10-22T10:06:42;100592.91;;;9.24;67.07
28510;BME280;15723;55.684;37.928;2022-10-22T10:09:14;100594.09;;;9.37;66.47
28510;BME280;15723;55.684;37.928;2022-10-22T10:11:52;100591.00;;;9.45;66.58
28510;BME280;15723;55.684;37.928;2022-10-22T10:16:54;100590.53;;;9.54;66.27
28510;BME280;15723;55.684;37.928;2022-10-22T10:22:04;100594.13;;;9.55;65.84
28510;BME280;15723;55.684;37.928;2022-10-22T10:35:03;100577.94;;;9.89;64.67
28510;BME280;15723;55.684;37.928;2022-10-22T10:40:27;100585.34;;;9.86;64.09
28510;BME280;15723;55.684;37.928;2022-10-22T10:42:57;100577.47;;;9.98;63.87
28510;BME280;15723;55.684;37.928;2022-10-22T10:45:36;100573.19;;;9.58;65.00
28510;BME280;15723;55.684;37.928;2022-10-22T10:55:52;100565.75;;;9.45;65.01
28510;BME280;15723;55.684;37.928;2022-10-22T10:59:11;100575.00;;;9.58;64.80
28510;BME280;15723;55.684;37.928;2022-10-22T11:06:17;100566.56;;;9.64;64.11
28510;BME280;15723;55.684;37.928;2022-10-22T11:08:56;100567.09;;;9.36;64.40
28510;BME280;15723;55.684;37.928;2022-10-22T11:11:35;100567.03;;;9.55;64.85
28510;BME280;15723;55.684;37.928;2022-10-22T11:14:18;100557.59;;;9.45;64.74
28510;BME280;15723;55.684;37.928;2022-10-22T11:16:51;100557.19;;;9.35;65.28
28510;BME280;15723;55.684;37.928;2022-10-22T11:19:19;100553.53;;;9.17;65.54
28510;BME280;15723;55.684;37.928;2022-10-22T11:21:52;100548.53;;;9.46;65.29
28510;BME280;15723;55.684;37.928;2022-10-22T11:24:25;100556.53;;;9.30;65.68
28510;BME280;15723;55.684;37.928;2022-10-22T11:29:23;100551.97;;;9.49;65.17
28510;BME280;15723;55.684;37.928;2022-10-22T11:31:50;100545.72;;;9.30;65.90
28510;BME280;15723;55.684;37.928;2022-10-22T11:34:22;100544.06;;;9.45;65.50
28510;BME280;15723;55.684;37.928;2022-10-22T11:36:50;100546.53;;;9.49;64.65
28510;BME280;15723;55.684;37.928;2022-10-22T11:42:05;100544.56;;;9.53;64.23
28510;BME280;15723;55.684;37.928;2022-10-22T11:45:25;100542.78;;;9.34;64.50
28510;BME280;15723;55.684;37.928;2022-10-22T11:47:24;100541.75;;;8.81;66.08
28510;BME280;15723;55.684;37.928;2022-10-22T11:49:58;100532.78;;;8.99;65.77
28510;BME280;15723;55.684;37.928;2022-10-22T11:52:40;100535.81;;;9.10;65.50
28510;BME280;15723;55.684;37.928;2022-10-22T11:56:20;100530.44;;;9.27;64.86
28510;BME280;15723;55.684;37.928;2022-10-22T11:58:22;100536.72;;;9.11;65.08
28510;BME280;15723;55.684;37.928;2022-10-22T12:00:48;100527.66;;;8.93;64.60
28510;BME280;15723;55.684;37.928;2022-10-22T12:03:19;100528.13;;;9.20;64.90
28510;BME280;15723;55.684;37.928;2022-10-22T12:08:30;100527.56;;;9.13;64.82
28510;BME280;15723;55.684;37.928;2022-10-22T12:10:59;100527.84;;;9.07;64.81
28510;BME280;15723;55.684;37.928;2022-10-22T12:13:29;100532.03;;;8.95;65.01
28510;BME280;15723;55.684;37.928;2022-10-22T12:16:00;100532.69;;;9.00;65.01
28510;BME280;15723;55.684;37.928;2022-10-22T12:18:32;100524.38;;;9.22;63.77
28510;BME280;15723;55.684;37.928;2022-10-22T12:20:59;100527.94;;;9.05;64.33
28510;BME280;15723;55.684;37.928;2022-10-22T12:23:29;100522.84;;;9.17;64.37
28510;BME280;15723;55.684;37.928;2022-10-22T12:25:56;100519.53;;;8.93;64.75
28510;BME280;15723;55.684;37.928;2022-10-22T12:28:22;100521.72;;;9.03;64.42
28510;BME280;15723;55.684;37.928;2022-10-22T12:30:48;100518.78;;;9.08;64.29
28510;BME280;15723;55.684;37.928;2022-10-22T12:33:21;100514.22;;;8.90;64.48
28510;BME280;15723;55.684;37.928;2022-10-22T12:35:48;100515.25;;;8.87;64.96
28510;BME280;15723;55.684;37.928;2022-10-22T12:38:18;100505.16;;;8.91;64.14
28510;BME280;15723;55.684;37.928;2022-10-22T12:40:45;100504.19;;;8.92;64.41
28510;BME280;15723;55.684;37.928;2022-10-22T12:43:15;100499.38;;;8.80;64.10
28510;BME280;15723;55.684;37.928;2022-10-22T12:45:42;100514.69;;;8.81;64.36
28510;BME280;15723;55.684;37.928;2022-10-22T12:48:20;100501.22;;;8.98;64.61
28510;BME280;15723;55.684;37.928;2022-10-22T12:50:48;100502.53;;;8.89;64.18
28510;BME280;15723;55.684;37.928;2022-10-22T12:53:17;100501.13;;;8.81;64.11
28510;BME280;15723;55.684;37.928;2022-10-22T12:55:46;100494.31;;;8.91;64.17
28510;BME280;15723;55.684;37.928;2022-10-22T12:58:18;100494.56;;;8.86;64.17
28510;BME280;15723;55.684;37.928;2022-10-22T13:00:45;100497.47;;;8.82;64.47
28510;BME280;15723;55.684;37.928;2022-10-22T13:03:22;100497.09;;;9.08;63.01
28510;BME280;15723;55.684;37.928;2022-10-22T13:05:49;100493.97;;;8.98;63.16
28510;BME280;15723;55.684;37.928;2022-10-22T13:08:20;100499.47;;;8.97;64.01
28510;BME280;15723;55.684;37.928;2022-10-22T13:10:52;100495.97;;;8.95;64.11
28510;BME280;15723;55.684;37.928;2022-10-22T13:18:39;100496.81;;;9.14;63.47
28510;BME280;15723;55.684;37.928;2022-10-22T13:21:19;100494.22;;;8.94;63.67
28510;BME280;15723;55.684;37.928;2022-10-22T13:23:54;100499.25;;;9.01;63.74
28510;BME280;15723;55.684;37.928;2022-10-22T13:26:20;100496.69;;;8.80;64.23
28510;BME280;15723;55.684;37.928;2022-10-22T13:28:50;100495.59;;;9.02;64.16
28510;BME280;15723;55.684;37.928;2022-10-22T13:31:18;100492.72;;;8.87;64.57
28510;BME280;15723;55.684;37.928;2022-10-22T13:33:45;100490.09;;;9.04;64.62
28510;BME280;15723;55.684;37.928;2022-10-22T13:36:16;100480.38;;;9.00;64.72
28510;BME280;15723;55.684;37.928;2022-10-22T13:38:43;100486.81;;;8.78;65.47
28510;BME280;15723;55.684;37.928;2022-10-22T13:41:25;100481.88;;;8.87;65.29
28510;BME280;15723;55.684;37.928;2022-10-22T13:43:52;100480.28;;;8.83;66.09
28510;BME280;15723;55.684;37.928;2022-10-22T13:46:19;100481.31;;;8.80;65.82
28510;BME280;15723;55.684;37.928;2022-10-22T13:48:46;100485.69;;;8.83;65.88
28510;BME280;15723;55.684;37.928;2022-10-22T13:51:16;100486.00;;;8.58;66.15
28510;BME280;15723;55.684;37.928;2022-10-22T13:53:44;100479.72;;;8.76;65.95
28510;BME280;15723;55.684;37.928;2022-10-22T13:56:13;100478.84;;;8.57;66.38
28510;BME280;15723;55.684;37.928;2022-10-22T13:58:41;100477.09;;;8.56;66.66
28510;BME280;15723;55.684;37.928;2022-10-22T14:01:10;100472.59;;;8.36;67.19
28510;BME280;15723;55.684;37.928;2022-10-22T14:03:41;100469.31;;;8.48;67.28
28510;BME280;15723;55.684;37.928;2022-10-22T14:06:10;100470.84;;;8.35;66.84
28510;BME280;15723;55.684;37.928;2022-10-22T14:08:38;100463.94;;;8.28;67.02
28510;BME280;15723;55.684;37.928;2022-10-22T14:11:04;100469.00;;;8.35;66.64
28510;BME280;15723;55.684;37.928;2022-10-22T14:13:30;100466.88;;;8.42;67.17
28510;BME280;15723;55.684;37.928;2022-10-22T14:15:56;100471.72;;;8.35;66.53
28510;BME280;15723;55.684;37.928;2022-10-22T14:18:24;100469.44;;;8.45;67.06
28510;BME280;15723;55.684;37.928;2022-10-22T14:20:54;100478.97;;;8.54;66.63
28510;BME280;15723;55.684;37.928;2022-10-22T14:23:21;100476.91;;;8.40;66.38
28510;BME280;15723;55.684;37.928;2022-10-22T14:25:48;100478.22;;;8.50;66.47
28510;BME280;15723;55.684;37.928;2022-10-22T14:28:17;100481.34;;;8.61;65.57
28510;BME280;15723;55.684;37.928;2022-10-22T14:30:44;100479.50;;;8.62;65.25